Colonia Pastoril, Argentina
Current Conditions -  °F | °C
As of 2:00 PM on Wednesday 22 Oct 2014 (Local Time) from SARF Reporting Station
Few Clouds Few Clouds  
Wind Chill: 34°   Ceiling: Unl
Heat Index: 34°   Visibility: 6mi
Dew Point: 15°   Wind: 10mph
Humidity: 32%   Direction: 110°ESE
Pressure: 29.94"   Gusts: NA
Location:  26.14°S, 58.39°W
Report Text: SARF 221700Z 11009KT 9999 FEW022 34/15 Q1014
Loading
Personal Weather Stations






























Interactive Weather Map
Tropical Storm Tracking
New forecast layout! Learn more

10-Day Weather Forecast

Advertisements
Track Severe Weather on mobile